sensor_id;sensor_type;location;lat;lon;timestamp;temperature;humidity
16801;DHT22;8518;53.236;10.384;2022-12-18T00:00:47;-5.20;99.90
16801;DHT22;8518;53.236;10.384;2022-12-18T00:03:14;-5.30;99.90
16801;DHT22;8518;53.236;10.384;2022-12-18T00:05:48;-5.30;99.90
16801;DHT22;8518;53.236;10.384;2022-12-18T00:08:14;-5.30;99.90
16801;DHT22;8518;53.236;10.384;2022-12-18T00:10:40;-5.30;99.90
16801;DHT22;8518;53.236;10.384;2022-12-18T00:13:06;-5.40;99.90
16801;DHT22;8518;53.236;10.384;2022-12-18T00:15:34;-5.40;99.90
16801;DHT22;8518;53.236;10.384;2022-12-18T00:17:59;-5.40;99.90
16801;DHT22;8518;53.236;10.384;2022-12-18T00:20:25;-5.40;99.90
16801;DHT22;8518;53.236;10.384;2022-12-18T00:22:52;-5.40;99.90
16801;DHT22;8518;53.236;10.384;2022-12-18T00:25:18;-5.50;99.90
16801;DHT22;8518;53.236;10.384;2022-12-18T00:27:44;-5.50;99.90
16801;DHT22;8518;53.236;10.384;2022-12-18T00:30:10;-5.40;99.90
16801;DHT22;8518;53.236;10.384;2022-12-18T00:32:35;-5.50;99.90
16801;DHT22;8518;53.236;10.384;2022-12-18T00:35:01;-5.50;99.90
16801;DHT22;8518;53.236;10.384;2022-12-18T00:37:27;-5.50;99.90
16801;DHT22;8518;53.236;10.384;2022-12-18T00:39:53;-5.50;99.90
16801;DHT22;8518;53.236;10.384;2022-12-18T00:42:18;-5.50;99.90
16801;DHT22;8518;53.236;10.384;2022-12-18T00:45:03;-5.50;99.90
16801;DHT22;8518;53.236;10.384;2022-12-18T00:47:28;-5.60;99.90
16801;DHT22;8518;53.236;10.384;2022-12-18T00:49:54;-5.60;99.90
16801;DHT22;8518;53.236;10.384;2022-12-18T00:52:20;-5.60;99.90
16801;DHT22;8518;53.236;10.384;2022-12-18T00:54:45;-5.60;99.90
16801;DHT22;8518;53.236;10.384;2022-12-18T00:57:11;-5.60;99.90
16801;DHT22;8518;53.236;10.384;2022-12-18T00:59:36;-5.60;99.90
16801;DHT22;8518;53.236;10.384;2022-12-18T01:02:02;-5.70;99.90
16801;DHT22;8518;53.236;10.384;2022-12-18T01:04:30;-5.70;99.90
16801;DHT22;8518;53.236;10.384;2022-12-18T01:06:56;-5.70;99.90
16801;DHT22;8518;53.236;10.384;2022-12-18T01:09:21;-5.70;99.90
16801;DHT22;8518;53.236;10.384;2022-12-18T01:11:47;-5.70;99.90
16801;DHT22;8518;53.236;10.384;2022-12-18T01:14:12;-5.80;99.90
16801;DHT22;8518;53.236;10.384;2022-12-18T01:16:38;-5.80;99.90
16801;DHT22;8518;53.236;10.384;2022-12-18T01:19:04;-5.90;99.90
16801;DHT22;8518;53.236;10.384;2022-12-18T01:21:29;-5.90;99.90
16801;DHT22;8518;53.236;10.384;2022-12-18T01:23:56;-5.80;99.90
16801;DHT22;8518;53.236;10.384;2022-12-18T01:26:22;-5.80;99.90
16801;DHT22;8518;53.236;10.384;2022-12-18T01:28:47;-5.80;99.90
16801;DHT22;8518;53.236;10.384;2022-12-18T01:31:25;-5.80;99.90
16801;DHT22;8518;53.236;10.384;2022-12-18T01:33:52;-5.80;99.90
16801;DHT22;8518;53.236;10.384;2022-12-18T01:36:27;-5.80;99.90
16801;DHT22;8518;53.236;10.384;2022-12-18T01:38:53;-5.80;99.90
16801;DHT22;8518;53.236;10.384;2022-12-18T01:41:25;-5.80;99.90
16801;DHT22;8518;53.236;10.384;2022-12-18T01:43:56;-5.80;99.90
16801;DHT22;8518;53.236;10.384;2022-12-18T01:46:23;-5.80;99.90
16801;DHT22;8518;53.236;10.384;2022-12-18T01:49:00;-5.90;99.90
16801;DHT22;8518;53.236;10.384;2022-12-18T01:51:27;-5.90;99.90
16801;DHT22;8518;53.236;10.384;2022-12-18T01:53:55;-5.90;99.90
16801;DHT22;8518;53.236;10.384;2022-12-18T01:56:21;-5.90;99.90
16801;DHT22;8518;53.236;10.384;2022-12-18T01:59:03;-5.90;99.90
16801;DHT22;8518;53.236;10.384;2022-12-18T02:01:30;-5.90;99.90
16801;DHT22;8518;53.236;10.384;2022-12-18T02:04:23;-5.90;99.90
16801;DHT22;8518;53.236;10.384;2022-12-18T02:07:03;-6.00;99.90
16801;DHT22;8518;53.236;10.384;2022-12-18T02:09:36;-6.00;99.90
16801;DHT22;8518;53.236;10.384;2022-12-18T02:12:16;-6.00;99.90
16801;DHT22;8518;53.236;10.384;2022-12-18T02:14:57;-6.00;99.90
16801;DHT22;8518;53.236;10.384;2022-12-18T02:20:29;-6.00;99.90
16801;DHT22;8518;53.236;10.384;2022-12-18T02:25:57;-6.00;99.90
16801;DHT22;8518;53.236;10.384;2022-12-18T02:28:33;-6.10;99.90
16801;DHT22;8518;53.236;10.384;2022-12-18T02:31:02;-6.30;99.90
16801;DHT22;8518;53.236;10.384;2022-12-18T02:33:30;-6.20;99.90
16801;DHT22;8518;53.236;10.384;2022-12-18T02:35:58;-6.20;99.90
16801;DHT22;8518;53.236;10.384;2022-12-18T02:38:25;-6.20;99.90
16801;DHT22;8518;53.236;10.384;2022-12-18T02:40:53;-6.50;99.90
16801;DHT22;8518;53.236;10.384;2022-12-18T02:43:19;-6.20;99.90
16801;DHT22;8518;53.236;10.384;2022-12-18T02:45:56;-6.30;99.90
16801;DHT22;8518;53.236;10.384;2022-12-18T02:48:30;-6.30;99.90
16801;DHT22;8518;53.236;10.384;2022-12-18T02:51:21;-6.20;99.90
16801;DHT22;8518;53.236;10.384;2022-12-18T02:53:55;-6.30;99.90
16801;DHT22;8518;53.236;10.384;2022-12-18T02:56:41;-6.30;99.90
16801;DHT22;8518;53.236;10.384;2022-12-18T02:59:13;-6.30;99.90
16801;DHT22;8518;53.236;10.384;2022-12-18T03:01:55;-6.20;99.90
16801;DHT22;8518;53.236;10.384;2022-12-18T03:04:30;-6.30;99.90
16801;DHT22;8518;53.236;10.384;2022-12-18T03:07:01;-6.20;99.90
16801;DHT22;8518;53.236;10.384;2022-12-18T03:09:34;-6.30;99.90
16801;DHT22;8518;53.236;10.384;2022-12-18T03:12:07;-6.30;99.90
16801;DHT22;8518;53.236;10.384;2022-12-18T03:17:23;-6.30;99.90
16801;DHT22;8518;53.236;10.384;2022-12-18T03:19:52;-6.30;99.90
16801;DHT22;8518;53.236;10.384;2022-12-18T03:22:20;-6.30;99.90
16801;DHT22;8518;53.236;10.384;2022-12-18T03:24:46;-6.30;99.90
16801;DHT22;8518;53.236;10.384;2022-12-18T03:27:17;-6.30;99.90
16801;DHT22;8518;53.236;10.384;2022-12-18T03:30:04;-6.30;99.90
16801;DHT22;8518;53.236;10.384;2022-12-18T03:32:53;-6.30;99.90
16801;DHT22;8518;53.236;10.384;2022-12-18T03:35:25;-6.40;99.90
16801;DHT22;8518;53.236;10.384;2022-12-18T03:37:51;-6.40;99.90
16801;DHT22;8518;53.236;10.384;2022-12-18T03:40:25;-6.40;99.90
16801;DHT22;8518;53.236;10.384;2022-12-18T03:43:04;-6.40;99.90
16801;DHT22;8518;53.236;10.384;2022-12-18T03:45:37;-6.50;99.90
16801;DHT22;8518;53.236;10.384;2022-12-18T03:50:58;-6.40;99.90
16801;DHT22;8518;53.236;10.384;2022-12-18T03:53:30;-6.50;99.90
16801;DHT22;8518;53.236;10.384;2022-12-18T03:55:58;-6.50;99.90
16801;DHT22;8518;53.236;10.384;2022-12-18T03:58:26;-6.50;99.90
16801;DHT22;8518;53.236;10.384;2022-12-18T04:00:55;-6.60;99.90
16801;DHT22;8518;53.236;10.384;2022-12-18T04:03:23;-6.50;99.90
16801;DHT22;8518;53.236;10.384;2022-12-18T04:05:51;-6.50;99.90
16801;DHT22;8518;53.236;10.384;2022-12-18T04:08:18;-6.50;99.90
16801;DHT22;8518;53.236;10.384;2022-12-18T04:10:44;-6.50;99.90
16801;DHT22;8518;53.236;10.384;2022-12-18T04:13:10;-6.50;99.90
16801;DHT22;8518;53.236;10.384;2022-12-18T04:15:37;-6.50;99.90
16801;DHT22;8518;53.236;10.384;2022-12-18T04:18:03;-6.50;99.90
16801;DHT22;8518;53.236;10.384;2022-12-18T04:20:29;-6.60;99.90
16801;DHT22;8518;53.236;10.384;2022-12-18T04:22:55;-6.70;99.90
16801;DHT22;8518;53.236;10.384;2022-12-18T04:25:21;-6.70;99.90
16801;DHT22;8518;53.236;10.384;2022-12-18T04:27:46;-6.80;99.90
16801;DHT22;8518;53.236;10.384;2022-12-18T04:30:12;-6.80;99.90
16801;DHT22;8518;53.236;10.384;2022-12-18T04:32:37;-6.80;99.90
16801;DHT22;8518;53.236;10.384;2022-12-18T04:35:03;-6.80;99.90
16801;DHT22;8518;53.236;10.384;2022-12-18T04:37:32;-6.90;99.90
16801;DHT22;8518;53.236;10.384;2022-12-18T04:39:57;-6.90;99.90
16801;DHT22;8518;53.236;10.384;2022-12-18T04:42:23;-7.00;99.90
16801;DHT22;8518;53.236;10.384;2022-12-18T04:44:49;-6.90;99.90
16801;DHT22;8518;53.236;10.384;2022-12-18T04:47:14;-7.00;99.90
16801;DHT22;8518;53.236;10.384;2022-12-18T04:49:40;-7.00;99.90
16801;DHT22;8518;53.236;10.384;2022-12-18T04:52:06;-7.00;99.90
16801;DHT22;8518;53.236;10.384;2022-12-18T04:54:31;-7.00;99.90
16801;DHT22;8518;53.236;10.384;2022-12-18T04:56:57;-7.00;99.90
16801;DHT22;8518;53.236;10.384;2022-12-18T04:59:22;-7.10;99.90
16801;DHT22;8518;53.236;10.384;2022-12-18T05:01:48;-7.10;99.90
16801;DHT22;8518;53.236;10.384;2022-12-18T05:04:14;-7.10;99.90
16801;DHT22;8518;53.236;10.384;2022-12-18T05:06:39;-7.10;99.90
16801;DHT22;8518;53.236;10.384;2022-12-18T05:09:05;-7.10;99.90
16801;DHT22;8518;53.236;10.384;2022-12-18T05:11:31;-7.10;99.90
16801;DHT22;8518;53.236;10.384;2022-12-18T05:13:56;-7.10;99.90
16801;DHT22;8518;53.236;10.384;2022-12-18T05:16:22;-7.10;99.90
16801;DHT22;8518;53.236;10.384;2022-12-18T05:18:47;-7.10;99.90
16801;DHT22;8518;53.236;10.384;2022-12-18T05:21:13;-7.10;99.90
16801;DHT22;8518;53.236;10.384;2022-12-18T05:23:39;-7.10;99.90
16801;DHT22;8518;53.236;10.384;2022-12-18T05:26:06;-7.10;99.90
16801;DHT22;8518;53.236;10.384;2022-12-18T05:28:34;-7.10;99.90
16801;DHT22;8518;53.236;10.384;2022-12-18T05:31:01;-7.20;99.90
16801;DHT22;8518;53.236;10.384;2022-12-18T05:33:31;-7.10;99.90
16801;DHT22;8518;53.236;10.384;2022-12-18T05:35:59;-7.10;99.90
16801;DHT22;8518;53.236;10.384;2022-12-18T05:38:26;-7.10;99.90
16801;DHT22;8518;53.236;10.384;2022-12-18T05:40:53;-7.30;99.90
16801;DHT22;8518;53.236;10.384;2022-12-18T05:43:20;-7.20;99.90
16801;DHT22;8518;53.236;10.384;2022-12-18T05:45:47;-7.10;99.90
16801;DHT22;8518;53.236;10.384;2022-12-18T05:48:13;-7.10;99.90
16801;DHT22;8518;53.236;10.384;2022-12-18T05:50:40;-7.10;99.90
16801;DHT22;8518;53.236;10.384;2022-12-18T05:53:06;-7.20;99.90
16801;DHT22;8518;53.236;10.384;2022-12-18T05:55:36;-7.20;99.90
16801;DHT22;8518;53.236;10.384;2022-12-18T05:58:04;-7.20;99.90
16801;DHT22;8518;53.236;10.384;2022-12-18T06:00:30;-7.20;99.90
16801;DHT22;8518;53.236;10.384;2022-12-18T06:02:57;-7.20;99.90
16801;DHT22;8518;53.236;10.384;2022-12-18T06:05:23;-7.30;99.90
16801;DHT22;8518;53.236;10.384;2022-12-18T06:07:48;-7.30;99.90
16801;DHT22;8518;53.236;10.384;2022-12-18T06:10:14;-7.30;99.90
16801;DHT22;8518;53.236;10.384;2022-12-18T06:12:40;-7.30;99.90
16801;DHT22;8518;53.236;10.384;2022-12-18T06:15:06;-7.40;99.90
16801;DHT22;8518;53.236;10.384;2022-12-18T06:17:32;-7.40;99.90
16801;DHT22;8518;53.236;10.384;2022-12-18T06:19:58;-7.40;99.90
16801;DHT22;8518;53.236;10.384;2022-12-18T06:22:24;-7.40;99.90
16801;DHT22;8518;53.236;10.384;2022-12-18T06:24:50;-7.40;99.90
16801;DHT22;8518;53.236;10.384;2022-12-18T06:27:16;-7.40;99.90
16801;DHT22;8518;53.236;10.384;2022-12-18T06:29:42;-7.40;99.90
16801;DHT22;8518;53.236;10.384;2022-12-18T06:32:07;-7.40;99.90
16801;DHT22;8518;53.236;10.384;2022-12-18T06:34:33;-7.40;99.90
16801;DHT22;8518;53.236;10.384;2022-12-18T06:36:59;-7.40;99.90
16801;DHT22;8518;53.236;10.384;2022-12-18T06:39:27;-7.30;99.90
16801;DHT22;8518;53.236;10.384;2022-12-18T06:41:53;-7.30;99.90
16801;DHT22;8518;53.236;10.384;2022-12-18T06:44:19;-7.30;99.90
16801;DHT22;8518;53.236;10.384;2022-12-18T06:46:45;-7.40;99.90
16801;DHT22;8518;53.236;10.384;2022-12-18T06:49:14;-7.40;99.90
16801;DHT22;8518;53.236;10.384;2022-12-18T06:51:41;-7.30;99.90
16801;DHT22;8518;53.236;10.384;2022-12-18T06:54:07;-7.30;99.90
16801;DHT22;8518;53.236;10.384;2022-12-18T06:56:33;-7.30;99.90
16801;DHT22;8518;53.236;10.384;2022-12-18T06:58:59;-7.40;99.90
16801;DHT22;8518;53.236;10.384;2022-12-18T07:01:24;-7.40;99.90
16801;DHT22;8518;53.236;10.384;2022-12-18T07:03:54;-7.40;99.90
16801;DHT22;8518;53.236;10.384;2022-12-18T07:06:22;-7.50;99.90
16801;DHT22;8518;53.236;10.384;2022-12-18T07:08:48;-7.50;99.90
16801;DHT22;8518;53.236;10.384;2022-12-18T07:11:15;-7.50;99.90
16801;DHT22;8518;53.236;10.384;2022-12-18T07:13:42;-7.50;99.90
16801;DHT22;8518;53.236;10.384;2022-12-18T07:16:13;-7.50;99.90
16801;DHT22;8518;53.236;10.384;2022-12-18T07:18:39;-7.50;99.90
16801;DHT22;8518;53.236;10.384;2022-12-18T07:21:07;-7.60;99.90
16801;DHT22;8518;53.236;10.384;2022-12-18T07:23:33;-7.50;99.90
16801;DHT22;8518;53.236;10.384;2022-12-18T07:26:11;-6.90;99.90
16801;DHT22;8518;53.236;10.384;2022-12-18T07:28:37;-7.50;99.90
16801;DHT22;8518;53.236;10.384;2022-12-18T07:31:10;-7.40;99.90
16801;DHT22;8518;53.236;10.384;2022-12-18T07:33:37;-7.40;99.90
16801;DHT22;8518;53.236;10.384;2022-12-18T07:36:04;-7.40;99.90
16801;DHT22;8518;53.236;10.384;2022-12-18T07:38:31;-7.50;99.90
16801;DHT22;8518;53.236;10.384;2022-12-18T07:41:01;-7.50;99.90
16801;DHT22;8518;53.236;10.384;2022-12-18T07:43:29;-7.50;99.90
16801;DHT22;8518;53.236;10.384;2022-12-18T07:45:58;-7.40;99.90
16801;DHT22;8518;53.236;10.384;2022-12-18T07:48:23;-7.40;99.90
16801;DHT22;8518;53.236;10.384;2022-12-18T07:50:52;-6.80;99.90
16801;DHT22;8518;53.236;10.384;2022-12-18T07:53:18;-6.80;99.90
16801;DHT22;8518;53.236;10.384;2022-12-18T07:55:43;-6.60;99.90
16801;DHT22;8518;53.236;10.384;2022-12-18T07:58:10;-6.40;99.90
16801;DHT22;8518;53.236;10.384;2022-12-18T08:00:35;-6.50;99.90
16801;DHT22;8518;53.236;10.384;2022-12-18T08:03:01;-6.30;99.90
16801;DHT22;8518;53.236;10.384;2022-12-18T08:05:27;-6.20;99.90
16801;DHT22;8518;53.236;10.384;2022-12-18T08:07:54;-6.10;99.90
16801;DHT22;8518;53.236;10.384;2022-12-18T08:10:20;-5.90;99.90
16801;DHT22;8518;53.236;10.384;2022-12-18T08:12:50;-5.80;99.90
16801;DHT22;8518;53.236;10.384;2022-12-18T08:15:16;-5.50;99.90
16801;DHT22;8518;53.236;10.384;2022-12-18T08:17:42;-5.20;99.90
16801;DHT22;8518;53.236;10.384;2022-12-18T08:20:08;-4.90;99.90
16801;DHT22;8518;53.236;10.384;2022-12-18T08:22:38;-4.80;99.90
16801;DHT22;8518;53.236;10.384;2022-12-18T08:25:04;-4.60;99.90
16801;DHT22;8518;53.236;10.384;2022-12-18T08:27:30;-4.00;99.90
16801;DHT22;8518;53.236;10.384;2022-12-18T08:29:57;-3.40;99.90
16801;DHT22;8518;53.236;10.384;2022-12-18T08:32:24;-2.70;99.90
16801;DHT22;8518;53.236;10.384;2022-12-18T08:34:49;-1.70;99.90
16801;DHT22;8518;53.236;10.384;2022-12-18T08:37:15;-0.90;99.90
16801;DHT22;8518;53.236;10.384;2022-12-18T08:39:40;-0.30;99.90
16801;DHT22;8518;53.236;10.384;2022-12-18T08:42:06;0.00;99.90
16801;DHT22;8518;53.236;10.384;2022-12-18T08:44:50;0.50;99.90
16801;DHT22;8518;53.236;10.384;2022-12-18T08:47:16;0.70;99.90
16801;DHT22;8518;53.236;10.384;2022-12-18T08:49:42;1.00;99.90
16801;DHT22;8518;53.236;10.384;2022-12-18T08:52:07;1.30;99.90
16801;DHT22;8518;53.236;10.384;2022-12-18T08:54:33;1.30;99.90
16801;DHT22;8518;53.236;10.384;2022-12-18T08:56:59;1.70;99.90
16801;DHT22;8518;53.236;10.384;2022-12-18T08:59:24;2.10;99.90
16801;DHT22;8518;53.236;10.384;2022-12-18T09:01:53;2.30;99.90
16801;DHT22;8518;53.236;10.384;2022-12-18T09:04:19;2.60;99.10
16801;DHT22;8518;53.236;10.384;2022-12-18T09:06:48;2.80;99.10
16801;DHT22;8518;53.236;10.384;2022-12-18T09:09:13;3.40;97.70
16801;DHT22;8518;53.236;10.384;2022-12-18T09:11:39;3.60;96.30
16801;DHT22;8518;53.236;10.384;2022-12-18T09:14:05;3.40;96.20
16801;DHT22;8518;53.236;10.384;2022-12-18T09:16:31;3.40;96.20
16801;DHT22;8518;53.236;10.384;2022-12-18T09:18:58;3.70;95.60
16801;DHT22;8518;53.236;10.384;2022-12-18T09:21:32;3.90;94.70
16801;DHT22;8518;53.236;10.384;2022-12-18T09:23:58;3.90;94.60
16801;DHT22;8518;53.236;10.384;2022-12-18T09:26:25;4.50;94.00
16801;DHT22;8518;53.236;10.384;2022-12-18T09:28:51;5.10;92.80
16801;DHT22;8518;53.236;10.384;2022-12-18T09:31:19;5.40;91.30
16801;DHT22;8518;53.236;10.384;2022-12-18T09:33:45;5.10;90.80
16801;DHT22;8518;53.236;10.384;2022-12-18T09:36:14;5.20;92.00
16801;DHT22;8518;53.236;10.384;2022-12-18T09:38:41;5.10;90.90
16801;DHT22;8518;53.236;10.384;2022-12-18T09:43:57;5.40;89.80
16801;DHT22;8518;53.236;10.384;2022-12-18T09:46:28;5.60;90.40
16801;DHT22;8518;53.236;10.384;2022-12-18T09:48:58;6.00;87.50
16801;DHT22;8518;53.236;10.384;2022-12-18T09:51:36;5.90;87.60
16801;DHT22;8518;53.236;10.384;2022-12-18T09:54:14;6.80;85.40
16801;DHT22;8518;53.236;10.384;2022-12-18T09:56:45;7.30;82.70
16801;DHT22;8518;53.236;10.384;2022-12-18T09:59:35;6.80;83.80
16801;DHT22;8518;53.236;10.384;2022-12-18T10:02:15;7.10;83.30
16801;DHT22;8518;53.236;10.384;2022-12-18T10:04:42;7.70;79.60
16801;DHT22;8518;53.236;10.384;2022-12-18T10:07:22;7.70;77.50
16801;DHT22;8518;53.236;10.384;2022-12-18T10:10:07;7.60;77.00
16801;DHT22;8518;53.236;10.384;2022-12-18T10:15:34;7.80;76.70
16801;DHT22;8518;53.236;10.384;2022-12-18T10:18:22;8.30;74.90
16801;DHT22;8518;53.236;10.384;2022-12-18T10:20:56;8.60;74.90
16801;DHT22;8518;53.236;10.384;2022-12-18T10:26:09;7.70;74.50
16801;DHT22;8518;53.236;10.384;2022-12-18T10:28:37;8.20;76.30
16801;DHT22;8518;53.236;10.384;2022-12-18T10:31:18;8.00;73.40
16801;DHT22;8518;53.236;10.384;2022-12-18T10:33:44;7.70;75.10
16801;DHT22;8518;53.236;10.384;2022-12-18T10:36:10;6.90;76.60
16801;DHT22;8518;53.236;10.384;2022-12-18T10:38:36;6.50;78.70
16801;DHT22;8518;53.236;10.384;2022-12-18T10:41:08;6.40;80.80
16801;DHT22;8518;53.236;10.384;2022-12-18T10:46:36;7.30;78.50
16801;DHT22;8518;53.236;10.384;2022-12-18T10:49:02;7.10;78.00
16801;DHT22;8518;53.236;10.384;2022-12-18T10:51:33;6.80;78.80
16801;DHT22;8518;53.236;10.384;2022-12-18T10:56:33;6.20;82.30
16801;DHT22;8518;53.236;10.384;2022-12-18T10:59:08;6.70;82.50
16801;DHT22;8518;53.236;10.384;2022-12-18T11:01:53;6.80;79.90
16801;DHT22;8518;53.236;10.384;2022-12-18T11:04:29;5.50;82.50
16801;DHT22;8518;53.236;10.384;2022-12-18T11:07:07;4.60;87.80
16801;DHT22;8518;53.236;10.384;2022-12-18T11:09:35;4.40;89.40
16801;DHT22;8518;53.236;10.384;2022-12-18T11:12:27;4.30;90.10
16801;DHT22;8518;53.236;10.384;2022-12-18T11:14:53;4.30;90.60
16801;DHT22;8518;53.236;10.384;2022-12-18T11:17:31;4.70;90.90
16801;DHT22;8518;53.236;10.384;2022-12-18T11:20:33;4.70;90.30
16801;DHT22;8518;53.236;10.384;2022-12-18T11:23:11;4.70;90.70
16801;DHT22;8518;53.236;10.384;2022-12-18T11:25:38;4.60;90.40
16801;DHT22;8518;53.236;10.384;2022-12-18T11:31:27;4.00;92.30
16801;DHT22;8518;53.236;10.384;2022-12-18T11:34:09;4.50;92.40
16801;DHT22;8518;53.236;10.384;2022-12-18T11:36:42;5.20;91.70
16801;DHT22;8518;53.236;10.384;2022-12-18T11:39:36;5.30;91.20
16801;DHT22;8518;53.236;10.384;2022-12-18T11:42:19;6.10;91.10
16801;DHT22;8518;53.236;10.384;2022-12-18T11:44:55;6.70;85.70
16801;DHT22;8518;53.236;10.384;2022-12-18T11:50:01;5.20;89.90
16801;DHT22;8518;53.236;10.384;2022-12-18T11:52:39;4.50;91.50
16801;DHT22;8518;53.236;10.384;2022-12-18T11:55:19;4.00;92.90
16801;DHT22;8518;53.236;10.384;2022-12-18T11:58:08;4.20;94.30
16801;DHT22;8518;53.236;10.384;2022-12-18T12:00:50;5.20;93.90
16801;DHT22;8518;53.236;10.384;2022-12-18T12:06:04;6.00;90.30
16801;DHT22;8518;53.236;10.384;2022-12-18T12:09:37;5.20;90.80
16801;DHT22;8518;53.236;10.384;2022-12-18T12:14:46;3.10;95.30
16801;DHT22;8518;53.236;10.384;2022-12-18T12:20:15;2.20;99.10
16801;DHT22;8518;53.236;10.384;2022-12-18T12:25:50;2.20;99.80
16801;DHT22;8518;53.236;10.384;2022-12-18T12:33:53;1.10;99.90
16801;DHT22;8518;53.236;10.384;2022-12-18T12:36:41;0.80;99.90
16801;DHT22;8518;53.236;10.384;2022-12-18T12:39:17;0.40;99.90
16801;DHT22;8518;53.236;10.384;2022-12-18T12:41:45;0.20;99.90
16801;DHT22;8518;53.236;10.384;2022-12-18T12:44:51;0.00;99.90
16801;DHT22;8518;53.236;10.384;2022-12-18T12:47:31;-0.20;99.90
16801;DHT22;8518;53.236;10.384;2022-12-18T12:49:59;-0.40;99.90
16801;DHT22;8518;53.236;10.384;2022-12-18T12:52:35;-0.70;99.90
16801;DHT22;8518;53.236;10.384;2022-12-18T12:55:05;-0.90;99.90
16801;DHT22;8518;53.236;10.384;2022-12-18T12:57:40;-1.00;99.90
16801;DHT22;8518;53.236;10.384;2022-12-18T13:00:16;-1.10;99.90
16801;DHT22;8518;53.236;10.384;2022-12-18T13:05:40;-1.30;99.90
16801;DHT22;8518;53.236;10.384;2022-12-18T13:08:29;-1.40;99.90
16801;DHT22;8518;53.236;10.384;2022-12-18T13:10:57;-1.50;99.90
16801;DHT22;8518;53.236;10.384;2022-12-18T13:13:51;-1.60;99.90
16801;DHT22;8518;53.236;10.384;2022-12-18T13:16:25;-1.70;99.90
16801;DHT22;8518;53.236;10.384;2022-12-18T13:18:55;-1.90;99.90
16801;DHT22;8518;53.236;10.384;2022-12-18T13:21:30;-2.10;99.90
16801;DHT22;8518;53.236;10.384;2022-12-18T13:23:57;-2.20;99.90
16801;DHT22;8518;53.236;10.384;2022-12-18T13:26:39;-2.20;99.90
16801;DHT22;8518;53.236;10.384;2022-12-18T13:29:05;-2.20;99.90
16801;DHT22;8518;53.236;10.384;2022-12-18T13:34:24;-1.90;99.90
16801;DHT22;8518;53.236;10.384;2022-12-18T13:36:51;-1.90;99.90
16801;DHT22;8518;53.236;10.384;2022-12-18T13:44:33;-1.90;99.90
16801;DHT22;8518;53.236;10.384;2022-12-18T13:47:01;-2.00;99.90
16801;DHT22;8518;53.236;10.384;2022-12-18T13:52:03;-2.30;99.90
16801;DHT22;8518;53.236;10.384;2022-12-18T13:54:40;-2.50;99.90
16801;DHT22;8518;53.236;10.384;2022-12-18T13:59:51;-2.40;99.90
16801;DHT22;8518;53.236;10.384;2022-12-18T14:02:20;-2.60;99.90
16801;DHT22;8518;53.236;10.384;2022-12-18T14:04:47;-2.70;99.90
16801;DHT22;8518;53.236;10.384;2022-12-18T14:07:16;-2.70;99.90
16801;DHT22;8518;53.236;10.384;2022-12-18T14:09:46;-2.70;99.90
16801;DHT22;8518;53.236;10.384;2022-12-18T14:12:22;-2.80;99.90
16801;DHT22;8518;53.236;10.384;2022-12-18T14:17:54;-2.80;99.90
16801;DHT22;8518;53.236;10.384;2022-12-18T14:20:20;-2.90;99.90
16801;DHT22;8518;53.236;10.384;2022-12-18T14:22:48;-2.90;99.90
16801;DHT22;8518;53.236;10.384;2022-12-18T14:25:21;-3.00;99.90
16801;DHT22;8518;53.236;10.384;2022-12-18T14:27:53;-3.10;99.90
16801;DHT22;8518;53.236;10.384;2022-12-18T14:30:30;-3.20;99.90
16801;DHT22;8518;53.236;10.384;2022-12-18T14:33:10;-3.20;99.90
16801;DHT22;8518;53.236;10.384;2022-12-18T14:35:41;-3.20;99.90
16801;DHT22;8518;53.236;10.384;2022-12-18T14:41:03;-3.30;99.90
16801;DHT22;8518;53.236;10.384;2022-12-18T14:43:33;-3.30;99.90
16801;DHT22;8518;53.236;10.384;2022-12-18T14:46:00;-3.40;99.90
16801;DHT22;8518;53.236;10.384;2022-12-18T14:48:42;-3.40;99.90
16801;DHT22;8518;53.236;10.384;2022-12-18T14:51:18;-3.40;99.90
16801;DHT22;8518;53.236;10.384;2022-12-18T14:53:55;-3.40;99.90
16801;DHT22;8518;53.236;10.384;2022-12-18T14:59:36;-3.40;99.90
16801;DHT22;8518;53.236;10.384;2022-12-18T15:01:39;-3.30;99.90
16801;DHT22;8518;53.236;10.384;2022-12-18T15:09:40;-3.30;99.90
16801;DHT22;8518;53.236;10.384;2022-12-18T15:12:22;-3.40;99.90
16801;DHT22;8518;53.236;10.384;2022-12-18T15:14:50;-3.40;99.90
16801;DHT22;8518;53.236;10.384;2022-12-18T15:17:21;-3.40;99.90
16801;DHT22;8518;53.236;10.384;2022-12-18T15:19:49;-3.40;99.90
16801;DHT22;8518;53.236;10.384;2022-12-18T15:24:47;-3.40;99.90
16801;DHT22;8518;53.236;10.384;2022-12-18T15:27:35;-3.40;99.90
16801;DHT22;8518;53.236;10.384;2022-12-18T15:32:41;-3.50;99.90
16801;DHT22;8518;53.236;10.384;2022-12-18T15:35:13;-3.50;99.90
16801;DHT22;8518;53.236;10.384;2022-12-18T15:37:43;-3.50;99.90
16801;DHT22;8518;53.236;10.384;2022-12-18T15:40:13;-3.50;99.90
16801;DHT22;8518;53.236;10.384;2022-12-18T15:42:39;-3.50;99.90
16801;DHT22;8518;53.236;10.384;2022-12-18T15:45:23;-3.50;99.90
16801;DHT22;8518;53.236;10.384;2022-12-18T15:47:49;-3.60;99.90
16801;DHT22;8518;53.236;10.384;2022-12-18T15:50:17;-3.60;99.90
16801;DHT22;8518;53.236;10.384;2022-12-18T15:52:45;-3.60;99.90
16801;DHT22;8518;53.236;10.384;2022-12-18T15:55:19;-3.60;99.90
16801;DHT22;8518;53.236;10.384;2022-12-18T15:58:08;-3.60;99.90
16801;DHT22;8518;53.236;10.384;2022-12-18T16:00:35;-3.60;99.90
16801;DHT22;8518;53.236;10.384;2022-12-18T16:03:02;-3.60;99.90
16801;DHT22;8518;53.236;10.384;2022-12-18T16:05:28;-3.50;99.90
16801;DHT22;8518;53.236;10.384;2022-12-18T16:07:54;-3.50;99.90
16801;DHT22;8518;53.236;10.384;2022-12-18T16:10:20;-3.50;99.90
16801;DHT22;8518;53.236;10.384;2022-12-18T16:12:46;-3.50;99.90
16801;DHT22;8518;53.236;10.384;2022-12-18T16:15:15;-3.40;99.90
16801;DHT22;8518;53.236;10.384;2022-12-18T16:17:45;-3.50;99.90
16801;DHT22;8518;53.236;10.384;2022-12-18T16:20:20;-3.50;99.90
16801;DHT22;8518;53.236;10.384;2022-12-18T16:22:47;-3.50;99.90
16801;DHT22;8518;53.236;10.384;2022-12-18T16:25:26;-3.50;99.90
16801;DHT22;8518;53.236;10.384;2022-12-18T16:27:53;-3.60;99.90
16801;DHT22;8518;53.236;10.384;2022-12-18T16:30:27;-3.50;99.90
16801;DHT22;8518;53.236;10.384;2022-12-18T16:32:54;-3.50;99.90
16801;DHT22;8518;53.236;10.384;2022-12-18T16:35:20;-3.50;99.90
16801;DHT22;8518;53.236;10.384;2022-12-18T16:37:46;-3.50;99.90
16801;DHT22;8518;53.236;10.384;2022-12-18T16:40:15;-3.40;99.90
16801;DHT22;8518;53.236;10.384;2022-12-18T16:42:42;-3.40;99.90
16801;DHT22;8518;53.236;10.384;2022-12-18T16:45:09;-3.40;99.90
16801;DHT22;8518;53.236;10.384;2022-12-18T16:47:36;-3.40;99.90
16801;DHT22;8518;53.236;10.384;2022-12-18T16:50:03;-3.30;99.90
16801;DHT22;8518;53.236;10.384;2022-12-18T16:52:29;-3.30;99.90
16801;DHT22;8518;53.236;10.384;2022-12-18T16:54:55;-3.30;99.90
16801;DHT22;8518;53.236;10.384;2022-12-18T16:57:24;-3.30;99.90
16801;DHT22;8518;53.236;10.384;2022-12-18T16:59:49;-3.20;99.90
16801;DHT22;8518;53.236;10.384;2022-12-18T17:02:20;-3.20;99.90
16801;DHT22;8518;53.236;10.384;2022-12-18T17:04:53;-3.20;99.90
16801;DHT22;8518;53.236;10.384;2022-12-18T17:07:19;-3.20;99.90
16801;DHT22;8518;53.236;10.384;2022-12-18T17:09:44;-3.30;99.90
16801;DHT22;8518;53.236;10.384;2022-12-18T17:12:10;-3.30;99.90
16801;DHT22;8518;53.236;10.384;2022-12-18T17:14:36;-3.20;99.90
16801;DHT22;8518;53.236;10.384;2022-12-18T17:17:02;-3.20;99.90